Mount Shasta, CA

3:52 AM PST on February 13, 2016 (GMT -0800)
Mount Shasta | | Change Station
CLOSE
Current Station
Personal Weather Station
Location: Mount Shasta, CA
Elevation: 3871 ft
Nearby Weather Stations

Elev 3871 ft 41.33 °N, 122.31 °W | Updated 6 minutes ago

Clear
Clear
38.3 °F
Feels Like 36 °F
N
3.7
Wind Variable Wind from West

Today
High -- | Low -- °F
--% Chance of Precip.
Yesterday
High -- | Low -- °F
Precip. -- in
Pressure 30.34 in
Visibility 10.0 miles
Clouds Clear
Windchill 36 °F
Dew Point 36 °F
Humidity 91%
Rainfall 0.00 in
Snow Depth Not available.
7:07 AM 5:40 PM
Waxing Crescent, 30% visible
METAR KMHS 131056Z AUTO 32008G15KT 280V360 10SM CLR 06/02 A3031 RMK AO2 SLP272 T00610022
Pressure 30.34 in
Visibility 10.0 miles
Clouds Clear
Windchill 36 °F
Dew Point 36 °F
Humidity 91%
Rainfall 0.00 in
Snow Depth Not available.
7:07 AM 5:40 PM
Waxing Crescent, 30% visible
METAR KMHS 131056Z AUTO 32008G15KT 280V360 10SM CLR 06/02 A3031 RMK AO2 SLP272 T00610022

10-Day Weather Forecast

Almanac

Astronomy

Feb. 13, 2016 Rise Set
Actual Time
Civil Twilight
Nautical Twilight
Astronomical Twilight
Moon
Length of Visible Light
Length of Day
Tomorrow will be .
, % of the Moon is Illuminated

Today's Extremes

State Highs State Lows

Community

WunderPhotos

Upload Photos

1,892,541 photos uploaded!

WunderBlog® & News

Nearby

Air Quality

  Air Quality AQ Index Pollutant
Not available.

Snow Depth

Station Depth Elevation

Earthquake Activity

City Distance Mag. Time & Date
Minimum magnitude displayed is 2.5.

Coastal Water Temperatures

Place Temperature

Stations

Nearby Weather Stations

Station Location Temp. Windchill Dew Point Humidity Wind Precip. Elev Updated Type
                   

Watches & Warnings

There are currently no watches in effect.